sensor_id;sensor_type;location;lat;lon;timestamp;temperature;humidity
2112;DHT22;1062;52.538;13.400;2022-12-07T00:01:20;2.80;99.90
2112;DHT22;1062;52.538;13.400;2022-12-07T00:03:48;2.80;99.90
2112;DHT22;1062;52.538;13.400;2022-12-07T00:06:15;2.80;99.90
2112;DHT22;1062;52.538;13.400;2022-12-07T00:08:41;2.80;99.90
2112;DHT22;1062;52.538;13.400;2022-12-07T00:11:13;2.90;99.90
2112;DHT22;1062;52.538;13.400;2022-12-07T00:13:40;2.90;99.90
2112;DHT22;1062;52.538;13.400;2022-12-07T00:16:09;2.90;99.90
2112;DHT22;1062;52.538;13.400;2022-12-07T00:18:34;2.90;99.90
2112;DHT22;1062;52.538;13.400;2022-12-07T00:21:16;2.90;99.90
2112;DHT22;1062;52.538;13.400;2022-12-07T00:23:43;2.80;99.90
2112;DHT22;1062;52.538;13.400;2022-12-07T00:26:11;2.70;99.90
2112;DHT22;1062;52.538;13.400;2022-12-07T00:28:37;2.60;99.90
2112;DHT22;1062;52.538;13.400;2022-12-07T00:31:05;2.60;99.90
2112;DHT22;1062;52.538;13.400;2022-12-07T00:33:32;2.60;99.90
2112;DHT22;1062;52.538;13.400;2022-12-07T00:35:58;2.60;99.90
2112;DHT22;1062;52.538;13.400;2022-12-07T00:38:26;2.60;99.90
2112;DHT22;1062;52.538;13.400;2022-12-07T00:41:19;2.60;99.90
2112;DHT22;1062;52.538;13.400;2022-12-07T00:43:46;2.60;99.90
2112;DHT22;1062;52.538;13.400;2022-12-07T00:46:13;2.60;99.90
2112;DHT22;1062;52.538;13.400;2022-12-07T00:48:39;2.50;99.90
2112;DHT22;1062;52.538;13.400;2022-12-07T00:51:05;2.50;99.90
2112;DHT22;1062;52.538;13.400;2022-12-07T00:53:34;2.50;99.90
2112;DHT22;1062;52.538;13.400;2022-12-07T00:56:08;2.50;99.90
2112;DHT22;1062;52.538;13.400;2022-12-07T00:58:34;2.40;99.90
2112;DHT22;1062;52.538;13.400;2022-12-07T01:01:01;2.40;99.90
2112;DHT22;1062;52.538;13.400;2022-12-07T01:03:27;2.30;99.90
2112;DHT22;1062;52.538;13.400;2022-12-07T01:05:55;2.30;99.90
2112;DHT22;1062;52.538;13.400;2022-12-07T01:08:21;2.20;99.90
2112;DHT22;1062;52.538;13.400;2022-12-07T01:10:47;2.10;99.90
2112;DHT22;1062;52.538;13.400;2022-12-07T01:13:13;2.10;99.90
2112;DHT22;1062;52.538;13.400;2022-12-07T01:15:43;2.10;99.90
2112;DHT22;1062;52.538;13.400;2022-12-07T01:18:10;2.10;99.90
2112;DHT22;1062;52.538;13.400;2022-12-07T01:20:36;2.10;99.90
2112;DHT22;1062;52.538;13.400;2022-12-07T01:23:02;2.10;99.90
2112;DHT22;1062;52.538;13.400;2022-12-07T01:25:28;2.10;99.90
2112;DHT22;1062;52.538;13.400;2022-12-07T01:27:53;2.20;99.90
2112;DHT22;1062;52.538;13.400;2022-12-07T01:30:19;2.20;99.90
2112;DHT22;1062;52.538;13.400;2022-12-07T01:32:44;2.10;99.90
2112;DHT22;1062;52.538;13.400;2022-12-07T01:35:10;2.20;99.90
2112;DHT22;1062;52.538;13.400;2022-12-07T01:37:36;2.20;99.90
2112;DHT22;1062;52.538;13.400;2022-12-07T01:40:03;2.20;99.90
2112;DHT22;1062;52.538;13.400;2022-12-07T01:42:29;2.20;99.90
2112;DHT22;1062;52.538;13.400;2022-12-07T01:47:58;2.20;99.90
2112;DHT22;1062;52.538;13.400;2022-12-07T01:50:26;2.20;99.90
2112;DHT22;1062;52.538;13.400;2022-12-07T01:52:55;2.20;99.90
2112;DHT22;1062;52.538;13.400;2022-12-07T01:55:21;2.20;99.90
2112;DHT22;1062;52.538;13.400;2022-12-07T01:57:49;2.20;99.90
2112;DHT22;1062;52.538;13.400;2022-12-07T02:00:16;2.20;99.90
2112;DHT22;1062;52.538;13.400;2022-12-07T02:02:55;2.30;99.90
2112;DHT22;1062;52.538;13.400;2022-12-07T02:05:24;2.30;99.90
2112;DHT22;1062;52.538;13.400;2022-12-07T02:07:51;2.20;99.90
2112;DHT22;1062;52.538;13.400;2022-12-07T02:10:21;2.20;99.90
2112;DHT22;1062;52.538;13.400;2022-12-07T02:12:54;2.20;99.90
2112;DHT22;1062;52.538;13.400;2022-12-07T02:15:22;2.20;99.90
2112;DHT22;1062;52.538;13.400;2022-12-07T02:28:33;2.20;99.90
2112;DHT22;1062;52.538;13.400;2022-12-07T02:31:06;2.20;99.90
2112;DHT22;1062;52.538;13.400;2022-12-07T02:33:40;2.20;99.90
2112;DHT22;1062;52.538;13.400;2022-12-07T02:36:12;2.20;99.90
2112;DHT22;1062;52.538;13.400;2022-12-07T02:38:51;2.10;99.90
2112;DHT22;1062;52.538;13.400;2022-12-07T02:41:36;2.00;99.90
2112;DHT22;1062;52.538;13.400;2022-12-07T02:44:13;2.10;99.90
2112;DHT22;1062;52.538;13.400;2022-12-07T02:46:43;2.00;99.90
2112;DHT22;1062;52.538;13.400;2022-12-07T02:49:10;2.00;99.90
2112;DHT22;1062;52.538;13.400;2022-12-07T02:51:41;2.00;99.90
2112;DHT22;1062;52.538;13.400;2022-12-07T02:54:17;2.00;99.90
2112;DHT22;1062;52.538;13.400;2022-12-07T03:01:38;1.90;99.90
2112;DHT22;1062;52.538;13.400;2022-12-07T03:12:45;2.00;99.90
2112;DHT22;1062;52.538;13.400;2022-12-07T03:15:38;2.00;99.90
2112;DHT22;1062;52.538;13.400;2022-12-07T03:18:07;2.00;99.90
2112;DHT22;1062;52.538;13.400;2022-12-07T03:20:34;2.00;99.90
2112;DHT22;1062;52.538;13.400;2022-12-07T03:23:04;2.00;99.90
2112;DHT22;1062;52.538;13.400;2022-12-07T03:25:32;2.00;99.90
2112;DHT22;1062;52.538;13.400;2022-12-07T03:28:03;2.10;99.90
2112;DHT22;1062;52.538;13.400;2022-12-07T03:30:42;2.10;99.90
2112;DHT22;1062;52.538;13.400;2022-12-07T03:33:41;2.20;99.90
2112;DHT22;1062;52.538;13.400;2022-12-07T03:36:14;2.20;99.90
2112;DHT22;1062;52.538;13.400;2022-12-07T03:38:48;2.20;99.90
2112;DHT22;1062;52.538;13.400;2022-12-07T03:41:21;2.20;99.90
2112;DHT22;1062;52.538;13.400;2022-12-07T03:43:48;2.20;99.90
2112;DHT22;1062;52.538;13.400;2022-12-07T03:46:37;2.30;99.90
2112;DHT22;1062;52.538;13.400;2022-12-07T03:52:00;2.30;99.90
2112;DHT22;1062;52.538;13.400;2022-12-07T03:54:39;2.30;99.90
2112;DHT22;1062;52.538;13.400;2022-12-07T03:57:08;2.30;99.90
2112;DHT22;1062;52.538;13.400;2022-12-07T03:59:34;2.30;99.90
2112;DHT22;1062;52.538;13.400;2022-12-07T04:02:05;2.30;99.90
2112;DHT22;1062;52.538;13.400;2022-12-07T04:04:32;2.30;99.90
2112;DHT22;1062;52.538;13.400;2022-12-07T04:06:58;2.30;99.90
2112;DHT22;1062;52.538;13.400;2022-12-07T04:09:24;2.30;99.90
2112;DHT22;1062;52.538;13.400;2022-12-07T04:11:50;2.30;99.90
2112;DHT22;1062;52.538;13.400;2022-12-07T04:14:15;2.30;99.90
2112;DHT22;1062;52.538;13.400;2022-12-07T04:16:53;2.30;99.90
2112;DHT22;1062;52.538;13.400;2022-12-07T04:19:20;2.30;99.90
2112;DHT22;1062;52.538;13.400;2022-12-07T04:21:47;2.30;99.90
2112;DHT22;1062;52.538;13.400;2022-12-07T04:24:14;2.20;99.90
2112;DHT22;1062;52.538;13.400;2022-12-07T04:26:41;2.20;99.90
2112;DHT22;1062;52.538;13.400;2022-12-07T04:29:07;2.20;99.90
2112;DHT22;1062;52.538;13.400;2022-12-07T04:31:33;2.20;99.90
2112;DHT22;1062;52.538;13.400;2022-12-07T04:33:59;2.20;99.90
2112;DHT22;1062;52.538;13.400;2022-12-07T04:36:24;2.20;99.90
2112;DHT22;1062;52.538;13.400;2022-12-07T04:38:52;2.20;99.90
2112;DHT22;1062;52.538;13.400;2022-12-07T04:41:18;2.20;99.90
2112;DHT22;1062;52.538;13.400;2022-12-07T04:43:43;2.10;99.90
2112;DHT22;1062;52.538;13.400;2022-12-07T04:46:09;2.20;99.90
2112;DHT22;1062;52.538;13.400;2022-12-07T04:48:34;2.20;99.90
2112;DHT22;1062;52.538;13.400;2022-12-07T04:51:01;2.20;99.90
2112;DHT22;1062;52.538;13.400;2022-12-07T04:53:27;2.30;99.90
2112;DHT22;1062;52.538;13.400;2022-12-07T04:55:52;2.30;99.90
2112;DHT22;1062;52.538;13.400;2022-12-07T04:58:18;2.20;99.90
2112;DHT22;1062;52.538;13.400;2022-12-07T05:00:43;2.30;99.90
2112;DHT22;1062;52.538;13.400;2022-12-07T05:03:09;2.30;99.90
2112;DHT22;1062;52.538;13.400;2022-12-07T05:05:35;2.30;99.90
2112;DHT22;1062;52.538;13.400;2022-12-07T05:08:00;2.30;99.90
2112;DHT22;1062;52.538;13.400;2022-12-07T05:10:26;2.30;99.90
2112;DHT22;1062;52.538;13.400;2022-12-07T05:12:51;2.30;99.90
2112;DHT22;1062;52.538;13.400;2022-12-07T05:15:17;2.40;99.90
2112;DHT22;1062;52.538;13.400;2022-12-07T05:17:43;2.40;99.90
2112;DHT22;1062;52.538;13.400;2022-12-07T05:20:09;2.40;99.90
2112;DHT22;1062;52.538;13.400;2022-12-07T05:22:35;2.50;99.90
2112;DHT22;1062;52.538;13.400;2022-12-07T05:25:01;2.50;99.90
2112;DHT22;1062;52.538;13.400;2022-12-07T05:27:26;2.50;99.90
2112;DHT22;1062;52.538;13.400;2022-12-07T05:29:52;2.60;99.90
2112;DHT22;1062;52.538;13.400;2022-12-07T05:32:18;2.60;99.90
2112;DHT22;1062;52.538;13.400;2022-12-07T05:34:44;2.70;99.90
2112;DHT22;1062;52.538;13.400;2022-12-07T05:37:09;2.70;99.90
2112;DHT22;1062;52.538;13.400;2022-12-07T05:39:35;2.70;99.90
2112;DHT22;1062;52.538;13.400;2022-12-07T05:42:01;2.80;99.90
2112;DHT22;1062;52.538;13.400;2022-12-07T05:44:45;2.80;99.90
2112;DHT22;1062;52.538;13.400;2022-12-07T05:47:12;2.80;99.90
2112;DHT22;1062;52.538;13.400;2022-12-07T05:49:38;2.80;99.90
2112;DHT22;1062;52.538;13.400;2022-12-07T05:52:04;2.80;99.90
2112;DHT22;1062;52.538;13.400;2022-12-07T05:54:30;2.80;99.90
2112;DHT22;1062;52.538;13.400;2022-12-07T05:56:56;2.90;99.90
2112;DHT22;1062;52.538;13.400;2022-12-07T05:59:21;2.90;99.90
2112;DHT22;1062;52.538;13.400;2022-12-07T06:01:58;3.00;99.90
2112;DHT22;1062;52.538;13.400;2022-12-07T06:04:26;2.90;99.90
2112;DHT22;1062;52.538;13.400;2022-12-07T06:06:53;3.00;99.90
2112;DHT22;1062;52.538;13.400;2022-12-07T06:09:19;3.00;99.90
2112;DHT22;1062;52.538;13.400;2022-12-07T06:11:45;3.10;99.90
2112;DHT22;1062;52.538;13.400;2022-12-07T06:14:29;3.10;99.90
2112;DHT22;1062;52.538;13.400;2022-12-07T06:16:55;3.10;99.90
2112;DHT22;1062;52.538;13.400;2022-12-07T06:19:20;3.10;99.90
2112;DHT22;1062;52.538;13.400;2022-12-07T06:21:46;3.10;99.90
2112;DHT22;1062;52.538;13.400;2022-12-07T06:24:13;3.10;99.90
2112;DHT22;1062;52.538;13.400;2022-12-07T06:26:39;3.10;99.90
2112;DHT22;1062;52.538;13.400;2022-12-07T06:29:05;3.20;99.90
2112;DHT22;1062;52.538;13.400;2022-12-07T06:31:31;3.10;99.90
2112;DHT22;1062;52.538;13.400;2022-12-07T06:34:15;3.20;99.90
2112;DHT22;1062;52.538;13.400;2022-12-07T06:36:41;3.20;99.90
2112;DHT22;1062;52.538;13.400;2022-12-07T06:39:07;3.10;99.90
2112;DHT22;1062;52.538;13.400;2022-12-07T06:41:35;3.10;99.90
2112;DHT22;1062;52.538;13.400;2022-12-07T06:44:01;3.10;99.90
2112;DHT22;1062;52.538;13.400;2022-12-07T06:46:26;3.10;99.90
2112;DHT22;1062;52.538;13.400;2022-12-07T06:48:52;3.20;99.90
2112;DHT22;1062;52.538;13.400;2022-12-07T06:51:18;3.20;99.90
2112;DHT22;1062;52.538;13.400;2022-12-07T06:53:44;3.20;99.90
2112;DHT22;1062;52.538;13.400;2022-12-07T06:56:09;3.20;99.90
2112;DHT22;1062;52.538;13.400;2022-12-07T06:58:35;3.20;99.90
2112;DHT22;1062;52.538;13.400;2022-12-07T07:01:01;3.30;99.90
2112;DHT22;1062;52.538;13.400;2022-12-07T07:03:27;3.30;99.90
2112;DHT22;1062;52.538;13.400;2022-12-07T07:05:52;3.30;99.90
2112;DHT22;1062;52.538;13.400;2022-12-07T07:08:18;3.30;99.90
2112;DHT22;1062;52.538;13.400;2022-12-07T07:10:43;3.40;99.90
2112;DHT22;1062;52.538;13.400;2022-12-07T07:13:09;3.40;99.90
2112;DHT22;1062;52.538;13.400;2022-12-07T07:15:38;3.40;99.90
2112;DHT22;1062;52.538;13.400;2022-12-07T07:18:04;3.40;99.90
2112;DHT22;1062;52.538;13.400;2022-12-07T07:20:29;3.50;99.90
2112;DHT22;1062;52.538;13.400;2022-12-07T07:22:55;3.50;99.90
2112;DHT22;1062;52.538;13.400;2022-12-07T07:25:21;3.60;99.90
2112;DHT22;1062;52.538;13.400;2022-12-07T07:27:47;3.60;99.90
2112;DHT22;1062;52.538;13.400;2022-12-07T07:30:13;3.60;99.90
2112;DHT22;1062;52.538;13.400;2022-12-07T07:32:38;3.60;99.90
2112;DHT22;1062;52.538;13.400;2022-12-07T07:35:04;3.60;99.90
2112;DHT22;1062;52.538;13.400;2022-12-07T07:37:30;3.60;99.90
2112;DHT22;1062;52.538;13.400;2022-12-07T07:39:55;3.60;99.90
2112;DHT22;1062;52.538;13.400;2022-12-07T07:42:21;3.60;99.90
2112;DHT22;1062;52.538;13.400;2022-12-07T07:44:47;3.60;99.90
2112;DHT22;1062;52.538;13.400;2022-12-07T07:47:12;3.60;99.90
2112;DHT22;1062;52.538;13.400;2022-12-07T07:49:38;3.50;99.90
2112;DHT22;1062;52.538;13.400;2022-12-07T07:52:05;3.60;99.90
2112;DHT22;1062;52.538;13.400;2022-12-07T07:54:31;3.60;99.90
2112;DHT22;1062;52.538;13.400;2022-12-07T07:56:57;3.70;99.90
2112;DHT22;1062;52.538;13.400;2022-12-07T07:59:22;3.70;99.90
2112;DHT22;1062;52.538;13.400;2022-12-07T08:01:48;3.70;99.90
2112;DHT22;1062;52.538;13.400;2022-12-07T08:04:13;3.80;99.90
2112;DHT22;1062;52.538;13.400;2022-12-07T08:06:39;3.80;99.90
2112;DHT22;1062;52.538;13.400;2022-12-07T08:09:04;3.80;99.90
2112;DHT22;1062;52.538;13.400;2022-12-07T08:11:31;3.80;99.90
2112;DHT22;1062;52.538;13.400;2022-12-07T08:13:57;3.80;99.90
2112;DHT22;1062;52.538;13.400;2022-12-07T08:16:22;3.80;99.90
2112;DHT22;1062;52.538;13.400;2022-12-07T08:18:48;3.80;99.90
2112;DHT22;1062;52.538;13.400;2022-12-07T08:21:15;3.80;99.90
2112;DHT22;1062;52.538;13.400;2022-12-07T08:23:41;3.80;99.90
2112;DHT22;1062;52.538;13.400;2022-12-07T08:26:12;3.80;99.90
2112;DHT22;1062;52.538;13.400;2022-12-07T08:28:38;3.80;99.90
2112;DHT22;1062;52.538;13.400;2022-12-07T08:31:07;3.90;99.90
2112;DHT22;1062;52.538;13.400;2022-12-07T08:33:34;3.90;99.90
2112;DHT22;1062;52.538;13.400;2022-12-07T08:36:05;3.90;99.90
2112;DHT22;1062;52.538;13.400;2022-12-07T08:38:31;3.90;99.90
2112;DHT22;1062;52.538;13.400;2022-12-07T08:40:58;3.80;99.90
2112;DHT22;1062;52.538;13.400;2022-12-07T08:43:24;3.90;99.90
2112;DHT22;1062;52.538;13.400;2022-12-07T08:46:20;3.90;99.90
2112;DHT22;1062;52.538;13.400;2022-12-07T08:48:49;3.90;99.90
2112;DHT22;1062;52.538;13.400;2022-12-07T08:51:16;3.90;99.90
2112;DHT22;1062;52.538;13.400;2022-12-07T08:53:42;3.90;99.90
2112;DHT22;1062;52.538;13.400;2022-12-07T08:56:09;3.90;99.90
2112;DHT22;1062;52.538;13.400;2022-12-07T08:58:35;3.90;99.90
2112;DHT22;1062;52.538;13.400;2022-12-07T09:01:03;4.00;99.90
2112;DHT22;1062;52.538;13.400;2022-12-07T09:03:29;4.00;99.90
2112;DHT22;1062;52.538;13.400;2022-12-07T09:05:54;4.00;99.90
2112;DHT22;1062;52.538;13.400;2022-12-07T09:08:22;4.00;99.90
2112;DHT22;1062;52.538;13.400;2022-12-07T09:10:48;4.00;99.90
2112;DHT22;1062;52.538;13.400;2022-12-07T09:13:14;4.10;99.90
2112;DHT22;1062;52.538;13.400;2022-12-07T09:15:43;4.10;99.90
2112;DHT22;1062;52.538;13.400;2022-12-07T09:18:08;4.10;99.90
2112;DHT22;1062;52.538;13.400;2022-12-07T09:20:34;4.10;99.90
2112;DHT22;1062;52.538;13.400;2022-12-07T09:22:59;4.00;99.90
2112;DHT22;1062;52.538;13.400;2022-12-07T09:25:25;3.90;99.90
2112;DHT22;1062;52.538;13.400;2022-12-07T09:27:58;3.80;99.90
2112;DHT22;1062;52.538;13.400;2022-12-07T09:30:25;3.80;99.90
2112;DHT22;1062;52.538;13.400;2022-12-07T09:32:53;3.90;99.90
2112;DHT22;1062;52.538;13.400;2022-12-07T09:35:19;3.80;99.90
2112;DHT22;1062;52.538;13.400;2022-12-07T09:37:44;3.90;99.90
2112;DHT22;1062;52.538;13.400;2022-12-07T09:40:10;3.80;99.90
2112;DHT22;1062;52.538;13.400;2022-12-07T09:42:39;3.70;99.90
2112;DHT22;1062;52.538;13.400;2022-12-07T09:45:39;3.60;99.90
2112;DHT22;1062;52.538;13.400;2022-12-07T09:48:04;3.60;99.90
2112;DHT22;1062;52.538;13.400;2022-12-07T09:50:30;3.70;99.90
2112;DHT22;1062;52.538;13.400;2022-12-07T09:53:10;3.60;99.90
2112;DHT22;1062;52.538;13.400;2022-12-07T09:55:40;3.70;99.90
2112;DHT22;1062;52.538;13.400;2022-12-07T09:58:06;3.60;99.90
2112;DHT22;1062;52.538;13.400;2022-12-07T10:00:31;3.60;99.90
2112;DHT22;1062;52.538;13.400;2022-12-07T10:02:59;3.50;99.90
2112;DHT22;1062;52.538;13.400;2022-12-07T10:05:38;3.50;99.90
2112;DHT22;1062;52.538;13.400;2022-12-07T10:08:07;3.50;99.90
2112;DHT22;1062;52.538;13.400;2022-12-07T10:10:34;3.60;99.90
2112;DHT22;1062;52.538;13.400;2022-12-07T10:13:06;3.60;99.90
2112;DHT22;1062;52.538;13.400;2022-12-07T10:15:45;3.70;99.90
2112;DHT22;1062;52.538;13.400;2022-12-07T10:21:17;3.60;99.90
2112;DHT22;1062;52.538;13.400;2022-12-07T10:26:38;3.50;99.90
2112;DHT22;1062;52.538;13.400;2022-12-07T10:29:17;3.60;99.90
2112;DHT22;1062;52.538;13.400;2022-12-07T10:31:46;3.70;99.90
2112;DHT22;1062;52.538;13.400;2022-12-07T10:34:41;3.80;99.90
2112;DHT22;1062;52.538;13.400;2022-12-07T10:42:22;3.90;99.90
2112;DHT22;1062;52.538;13.400;2022-12-07T10:44:50;4.00;99.90
2112;DHT22;1062;52.538;13.400;2022-12-07T10:47:46;3.90;99.90
2112;DHT22;1062;52.538;13.400;2022-12-07T10:50:17;3.90;99.90
2112;DHT22;1062;52.538;13.400;2022-12-07T10:55:43;3.80;99.90
2112;DHT22;1062;52.538;13.400;2022-12-07T10:58:34;3.70;99.90
2112;DHT22;1062;52.538;13.400;2022-12-07T11:04:50;3.70;99.90
2112;DHT22;1062;52.538;13.400;2022-12-07T11:09:47;3.80;99.90
2112;DHT22;1062;52.538;13.400;2022-12-07T11:12:43;3.80;99.90
2112;DHT22;1062;52.538;13.400;2022-12-07T11:15:18;3.70;99.90
2112;DHT22;1062;52.538;13.400;2022-12-07T11:18:24;3.80;99.90
2112;DHT22;1062;52.538;13.400;2022-12-07T11:24:16;3.70;99.90
2112;DHT22;1062;52.538;13.400;2022-12-07T11:32:55;3.80;99.90
2112;DHT22;1062;52.538;13.400;2022-12-07T11:38:40;3.90;99.90
2112;DHT22;1062;52.538;13.400;2022-12-07T11:41:06;3.90;99.90
2112;DHT22;1062;52.538;13.400;2022-12-07T11:43:52;3.90;99.90
2112;DHT22;1062;52.538;13.400;2022-12-07T11:46:21;3.90;99.90
2112;DHT22;1062;52.538;13.400;2022-12-07T11:51:25;3.90;99.90
2112;DHT22;1062;52.538;13.400;2022-12-07T11:53:58;4.10;99.90
2112;DHT22;1062;52.538;13.400;2022-12-07T11:56:26;4.10;99.90
2112;DHT22;1062;52.538;13.400;2022-12-07T11:59:00;4.00;99.90
2112;DHT22;1062;52.538;13.400;2022-12-07T12:04:28;4.10;99.90
2112;DHT22;1062;52.538;13.400;2022-12-07T12:06:56;4.20;99.90
2112;DHT22;1062;52.538;13.400;2022-12-07T12:09:32;4.20;99.90
2112;DHT22;1062;52.538;13.400;2022-12-07T12:23:43;4.30;99.90
2112;DHT22;1062;52.538;13.400;2022-12-07T12:26:21;4.30;99.90
2112;DHT22;1062;52.538;13.400;2022-12-07T12:28:57;4.40;99.90
2112;DHT22;1062;52.538;13.400;2022-12-07T12:34:01;4.40;99.90
2112;DHT22;1062;52.538;13.400;2022-12-07T12:39:17;4.60;99.90
2112;DHT22;1062;52.538;13.400;2022-12-07T12:46:53;4.40;99.90
2112;DHT22;1062;52.538;13.400;2022-12-07T12:54:22;4.60;99.90
2112;DHT22;1062;52.538;13.400;2022-12-07T12:59:55;4.50;99.90
2112;DHT22;1062;52.538;13.400;2022-12-07T13:02:37;4.40;99.90
2112;DHT22;1062;52.538;13.400;2022-12-07T13:29:20;4.40;99.90
2112;DHT22;1062;52.538;13.400;2022-12-07T13:31:54;4.40;99.90
2112;DHT22;1062;52.538;13.400;2022-12-07T13:34:37;4.40;99.90
2112;DHT22;1062;52.538;13.400;2022-12-07T13:37:14;4.50;99.90
2112;DHT22;1062;52.538;13.400;2022-12-07T13:39:51;4.40;99.90
2112;DHT22;1062;52.538;13.400;2022-12-07T13:42:30;4.40;99.90
2112;DHT22;1062;52.538;13.400;2022-12-07T13:44:58;4.40;99.90
2112;DHT22;1062;52.538;13.400;2022-12-07T13:47:44;4.40;99.90
2112;DHT22;1062;52.538;13.400;2022-12-07T13:50:30;4.40;99.90
2112;DHT22;1062;52.538;13.400;2022-12-07T13:53:00;4.40;99.90
2112;DHT22;1062;52.538;13.400;2022-12-07T13:55:27;4.50;99.90
2112;DHT22;1062;52.538;13.400;2022-12-07T13:57:54;4.50;99.90
2112;DHT22;1062;52.538;13.400;2022-12-07T14:00:25;4.50;99.90
2112;DHT22;1062;52.538;13.400;2022-12-07T14:05:30;4.50;99.90
2112;DHT22;1062;52.538;13.400;2022-12-07T14:07:59;4.50;99.90
2112;DHT22;1062;52.538;13.400;2022-12-07T14:12:56;4.50;99.90
2112;DHT22;1062;52.538;13.400;2022-12-07T14:15:26;4.40;99.90
2112;DHT22;1062;52.538;13.400;2022-12-07T14:17:54;4.40;99.90
2112;DHT22;1062;52.538;13.400;2022-12-07T14:22:59;4.40;99.90
2112;DHT22;1062;52.538;13.400;2022-12-07T14:25:26;4.40;99.90
2112;DHT22;1062;52.538;13.400;2022-12-07T14:27:57;4.30;99.90
2112;DHT22;1062;52.538;13.400;2022-12-07T14:30:26;4.40;99.90
2112;DHT22;1062;52.538;13.400;2022-12-07T14:32:57;4.40;99.90
2112;DHT22;1062;52.538;13.400;2022-12-07T14:35:23;4.30;99.90
2112;DHT22;1062;52.538;13.400;2022-12-07T14:37:49;4.30;99.90
2112;DHT22;1062;52.538;13.400;2022-12-07T14:40:20;4.30;99.90
2112;DHT22;1062;52.538;13.400;2022-12-07T14:42:48;4.30;99.90
2112;DHT22;1062;52.538;13.400;2022-12-07T14:45:18;4.30;99.90
2112;DHT22;1062;52.538;13.400;2022-12-07T14:47:45;4.20;99.90
2112;DHT22;1062;52.538;13.400;2022-12-07T14:50:15;4.20;99.90
2112;DHT22;1062;52.538;13.400;2022-12-07T14:52:45;4.30;99.90
2112;DHT22;1062;52.538;13.400;2022-12-07T14:55:23;4.20;99.90
2112;DHT22;1062;52.538;13.400;2022-12-07T14:57:48;4.10;99.90
2112;DHT22;1062;52.538;13.400;2022-12-07T15:00:15;4.10;99.90
2112;DHT22;1062;52.538;13.400;2022-12-07T15:02:43;4.00;99.90
2112;DHT22;1062;52.538;13.400;2022-12-07T15:05:09;3.90;99.90
2112;DHT22;1062;52.538;13.400;2022-12-07T15:07:35;3.90;99.90
2112;DHT22;1062;52.538;13.400;2022-12-07T15:10:00;3.90;99.90
2112;DHT22;1062;52.538;13.400;2022-12-07T15:12:26;3.80;99.90
2112;DHT22;1062;52.538;13.400;2022-12-07T15:14:52;3.70;99.90
2112;DHT22;1062;52.538;13.400;2022-12-07T15:17:17;3.60;99.90
2112;DHT22;1062;52.538;13.400;2022-12-07T15:19:43;3.60;99.90
2112;DHT22;1062;52.538;13.400;2022-12-07T15:22:09;3.60;99.90
2112;DHT22;1062;52.538;13.400;2022-12-07T15:24:36;3.60;99.90
2112;DHT22;1062;52.538;13.400;2022-12-07T15:27:03;3.50;99.90
2112;DHT22;1062;52.538;13.400;2022-12-07T15:29:29;3.50;99.90
2112;DHT22;1062;52.538;13.400;2022-12-07T15:31:55;3.50;99.90
2112;DHT22;1062;52.538;13.400;2022-12-07T15:34:21;3.40;99.90
2112;DHT22;1062;52.538;13.400;2022-12-07T15:36:47;3.40;99.90
2112;DHT22;1062;52.538;13.400;2022-12-07T15:39:12;3.30;99.90
2112;DHT22;1062;52.538;13.400;2022-12-07T15:41:38;3.30;99.90
2112;DHT22;1062;52.538;13.400;2022-12-07T15:44:04;3.30;99.90
2112;DHT22;1062;52.538;13.400;2022-12-07T15:46:48;3.30;99.90
2112;DHT22;1062;52.538;13.400;2022-12-07T15:49:16;3.40;99.90
2112;DHT22;1062;52.538;13.400;2022-12-07T15:51:43;3.50;99.90
2112;DHT22;1062;52.538;13.400;2022-12-07T15:54:28;3.50;99.90
2112;DHT22;1062;52.538;13.400;2022-12-07T15:56:55;3.60;99.90
2112;DHT22;1062;52.538;13.400;2022-12-07T15:59:21;3.60;99.90
2112;DHT22;1062;52.538;13.400;2022-12-07T16:01:47;3.60;99.90
2112;DHT22;1062;52.538;13.400;2022-12-07T16:04:13;3.60;99.90
2112;DHT22;1062;52.538;13.400;2022-12-07T16:06:39;3.60;99.90
2112;DHT22;1062;52.538;13.400;2022-12-07T16:09:04;3.60;99.90
2112;DHT22;1062;52.538;13.400;2022-12-07T16:11:30;3.60;99.90
2112;DHT22;1062;52.538;13.400;2022-12-07T16:13:56;3.60;99.90
2112;DHT22;1062;52.538;13.400;2022-12-07T16:16:22;3.50;99.90
2112;DHT22;1062;52.538;13.400;2022-12-07T16:18:49;3.50;99.90
2112;DHT22;1062;52.538;13.400;2022-12-07T16:21:16;3.40;99.90
2112;DHT22;1062;52.538;13.400;2022-12-07T16:23:42;3.30;99.90
2112;DHT22;1062;52.538;13.400;2022-12-07T16:26:14;3.30;99.90
2112;DHT22;1062;52.538;13.400;2022-12-07T16:28:40;3.30;99.90
2112;DHT22;1062;52.538;13.400;2022-12-07T16:31:13;3.30;99.90
2112;DHT22;1062;52.538;13.400;2022-12-07T16:33:40;3.30;99.90
2112;DHT22;1062;52.538;13.400;2022-12-07T16:36:07;3.30;99.90
2112;DHT22;1062;52.538;13.400;2022-12-07T16:38:34;3.20;99.90
2112;DHT22;1062;52.538;13.400;2022-12-07T16:40:59;3.20;99.90
2112;DHT22;1062;52.538;13.400;2022-12-07T16:43:25;3.10;99.90
2112;DHT22;1062;52.538;13.400;2022-12-07T16:45:51;3.00;99.90
2112;DHT22;1062;52.538;13.400;2022-12-07T16:48:17;3.10;99.90
2112;DHT22;1062;52.538;13.400;2022-12-07T16:50:43;3.00;99.90
2112;DHT22;1062;52.538;13.400;2022-12-07T16:53:10;2.90;99.90
2112;DHT22;1062;52.538;13.400;2022-12-07T16:55:44;2.90;99.90
2112;DHT22;1062;52.538;13.400;2022-12-07T16:58:12;2.80;99.90
2112;DHT22;1062;52.538;13.400;2022-12-07T17:00:38;2.90;99.90
2112;DHT22;1062;52.538;13.400;2022-12-07T17:03:04;2.90;99.90
2112;DHT22;1062;52.538;13.400;2022-12-07T17:05:30;2.90;99.90
2112;DHT22;1062;52.538;13.400;2022-12-07T17:07:56;2.80;99.90
2112;DHT22;1062;52.538;13.400;2022-12-07T17:10:23;2.80;99.90
2112;DHT22;1062;52.538;13.400;2022-12-07T17:12:49;2.70;99.90
2112;DHT22;1062;52.538;13.400;2022-12-07T17:15:15;2.70;99.90
2112;DHT22;1062;52.538;13.400;2022-12-07T17:17:57;2.70;99.90
2112;DHT22;1062;52.538;13.400;2022-12-07T17:20:24;2.60;99.90
2112;DHT22;1062;52.538;13.400;2022-12-07T17:22:50;2.60;99.90
2112;DHT22;1062;52.538;13.400;2022-12-07T17:25:17;2.50;99.90
2112;DHT22;1062;52.538;13.400;2022-12-07T17:27:44;2.50;99.90
2112;DHT22;1062;52.538;13.400;2022-12-07T17:30:10;2.50;99.90
2112;DHT22;1062;52.538;13.400;2022-12-07T17:32:36;2.50;99.90
2112;DHT22;1062;52.538;13.400;2022-12-07T17:35:02;2.30;99.90
2112;DHT22;1062;52.538;13.400;2022-12-07T17:37:27;2.30;99.90
2112;DHT22;1062;52.538;13.400;2022-12-07T17:39:53;2.40;99.90
2112;DHT22;1062;52.538;13.400;2022-12-07T17:42:23;2.20;99.90
2112;DHT22;1062;52.538;13.400;2022-12-07T17:45:07;2.20;99.90
2112;DHT22;1062;52.538;13.400;2022-12-07T17:47:33;2.20;99.90
2112;DHT22;1062;52.538;13.400;2022-12-07T17:49:59;2.20;99.90
2112;DHT22;1062;52.538;13.400;2022-12-07T17:52:24;2.20;99.90
2112;DHT22;1062;52.538;13.400;2022-12-07T17:55:13;2.10;99.90
2112;DHT22;1062;52.538;13.400;2022-12-07T17:57:39;2.10;99.90
2112;DHT22;1062;52.538;13.400;2022-12-07T18:00:05;2.00;99.90
2112;DHT22;1062;52.538;13.400;2022-12-07T18:02:31;2.10;99.90
2112;DHT22;1062;52.538;13.400;2022-12-07T18:04:56;2.20;99.90
2112;DHT22;1062;52.538;13.400;2022-12-07T18:07:22;2.10;99.90
2112;DHT22;1062;52.538;13.400;2022-12-07T18:09:48;2.10;99.90
2112;DHT22;1062;52.538;13.400;2022-12-07T18:12:13;2.10;99.90
2112;DHT22;1062;52.538;13.400;2022-12-07T18:14:39;2.00;99.90
2112;DHT22;1062;52.538;13.400;2022-12-07T18:17:05;1.90;99.90
2112;DHT22;1062;52.538;13.400;2022-12-07T18:19:30;2.00;99.90
2112;DHT22;1062;52.538;13.400;2022-12-07T18:21:57;2.00;99.90
2112;DHT22;1062;52.538;13.400;2022-12-07T18:24:23;1.90;99.90